Greater Cumberland Rgnl Information

FAA: CBE - ICAO: KCBE

Greater Cumberland Rgnl (Airport) Location

State Maryland
County Mineral
City Cumberland
Greater Cumberland Rgnl (Airport) is 2 miles south of Cumberland, MD.
Latitude 39-36-55.1010N
Longitude 078-45-41.3220W
Elevation 775ft

Greater Cumberland Rgnl METARs

METAR KCBE 032155Z AUTO 35005KT 10SM OVC075 07/M02 A3010 RMK AO2 T00731016
Altimeter 30.10"
Temperature 7.3°C (45.1°F)
Wind 350° at 5KT
Clouds overcast at 7,500ft
Visibility 10.0mi
Time observed: 2021-12-03T21:55:00Z

Greater Cumberland Rgnl (Airport) Details

Status Operational
Activation March 1944
Ownership Public
Usage Public
Chart WASHINGTON
ATC on-site No
Beacon schedule sunset-sunrise
Beacon color clear green

Greater Cumberland Rgnl (Airport) Contacts

Owner POTOMAC HIGHLAND ARPT AUTH
Owner address 165 TERMINAL LOOP, WILEY FORD, WV 26767
Owner phone 304-738-0002
Manager KEVIN HESS
Manager address 3538 ALDINO RD, CHURCHVILLE, MD 21028
Manager phone 410-836-2828

Greater Cumberland Rgnl Radio Frequencies

Greater Cumberland Rgnl (Airport) Radio Frequencies

UNICOM 122.8
Common traffic advisory frequency (CTAF) 122.8